sensor_id;sensor_type;location;lat;lon;timestamp;pressure;altitude;pressure_sealevel;temperature;humidity
64460;BME280;50828;53.756;21.140;2023-05-09T00:02:21;101230.98;;;4.24;46.45
64460;BME280;50828;53.756;21.140;2023-05-09T00:07:29;101226.59;;;4.14;46.46
64460;BME280;50828;53.756;21.140;2023-05-09T00:12:36;101225.52;;;4.07;46.68
64460;BME280;50828;53.756;21.140;2023-05-09T00:17:44;101222.15;;;3.97;46.76
64460;BME280;50828;53.756;21.140;2023-05-09T00:22:51;101222.29;;;3.88;46.67
64460;BME280;50828;53.756;21.140;2023-05-09T00:28:00;101227.31;;;3.82;46.89
64460;BME280;50828;53.756;21.140;2023-05-09T00:33:07;101224.48;;;3.74;47.13
64460;BME280;50828;53.756;21.140;2023-05-09T00:38:15;101223.39;;;3.67;47.43
64460;BME280;50828;53.756;21.140;2023-05-09T00:43:23;101220.04;;;3.59;47.58
64460;BME280;50828;53.756;21.140;2023-05-09T00:48:31;101217.89;;;3.50;47.45
64460;BME280;50828;53.756;21.140;2023-05-09T00:53:38;101222.23;;;3.45;47.76
64460;BME280;50828;53.756;21.140;2023-05-09T00:58:46;101218.67;;;3.38;47.81
64460;BME280;50828;53.756;21.140;2023-05-09T01:03:54;101217.95;;;3.31;48.02
64460;BME280;50828;53.756;21.140;2023-05-09T01:09:06;101215.98;;;3.24;48.25
64460;BME280;50828;53.756;21.140;2023-05-09T01:14:26;101215.57;;;3.18;48.62
64460;BME280;50828;53.756;21.140;2023-05-09T01:19:55;101213.94;;;3.09;48.79
64460;BME280;50828;53.756;21.140;2023-05-09T01:25:17;101216.67;;;3.04;48.92
64460;BME280;50828;53.756;21.140;2023-05-09T01:30:27;101216.46;;;2.98;49.25
64460;BME280;50828;53.756;21.140;2023-05-09T01:35:38;101213.96;;;2.90;49.49
64460;BME280;50828;53.756;21.140;2023-05-09T01:40:46;101215.48;;;2.86;49.93
64460;BME280;50828;53.756;21.140;2023-05-09T01:45:55;101218.56;;;2.80;50.49
64460;BME280;50828;53.756;21.140;2023-05-09T01:51:04;101215.03;;;2.75;49.86
64460;BME280;50828;53.756;21.140;2023-05-09T01:56:12;101206.96;;;2.67;49.71
64460;BME280;50828;53.756;21.140;2023-05-09T02:01:21;101206.58;;;2.63;49.64
64460;BME280;50828;53.756;21.140;2023-05-09T02:06:31;101205.11;;;2.56;49.57
64460;BME280;50828;53.756;21.140;2023-05-09T02:11:39;101207.85;;;2.50;49.82
64460;BME280;50828;53.756;21.140;2023-05-09T02:16:46;101204.47;;;2.45;49.97
64460;BME280;50828;53.756;21.140;2023-05-09T02:21:54;101205.28;;;2.39;50.13
64460;BME280;50828;53.756;21.140;2023-05-09T02:27:03;101201.05;;;2.33;49.99
64460;BME280;50828;53.756;21.140;2023-05-09T02:32:14;101209.02;;;2.30;50.40
64460;BME280;50828;53.756;21.140;2023-05-09T02:37:22;101207.21;;;2.25;50.30
64460;BME280;50828;53.756;21.140;2023-05-09T02:42:30;101201.23;;;2.19;50.30
64460;BME280;50828;53.756;21.140;2023-05-09T02:47:38;101204.84;;;2.15;50.45
64460;BME280;50828;53.756;21.140;2023-05-09T02:52:45;101204.61;;;2.09;50.48
64460;BME280;50828;53.756;21.140;2023-05-09T02:57:53;101200.69;;;2.02;50.87
64460;BME280;50828;53.756;21.140;2023-05-09T03:03:16;101201.52;;;1.99;51.01
64460;BME280;50828;53.756;21.140;2023-05-09T03:08:24;101201.65;;;1.96;50.90
64460;BME280;50828;53.756;21.140;2023-05-09T03:13:32;101197.08;;;1.91;51.05
64460;BME280;50828;53.756;21.140;2023-05-09T03:18:39;101208.19;;;1.90;51.41
64460;BME280;50828;53.756;21.140;2023-05-09T03:23:46;101211.64;;;1.88;52.08
64460;BME280;50828;53.756;21.140;2023-05-09T03:28:54;101217.19;;;1.88;52.71
64460;BME280;50828;53.756;21.140;2023-05-09T03:34:01;101214.77;;;1.88;52.20
64460;BME280;50828;53.756;21.140;2023-05-09T03:39:09;101217.83;;;1.97;52.22
64460;BME280;50828;53.756;21.140;2023-05-09T03:44:17;101216.95;;;2.10;52.21
64460;BME280;50828;53.756;21.140;2023-05-09T03:49:25;101224.09;;;2.26;52.23
64460;BME280;50828;53.756;21.140;2023-05-09T03:54:32;101223.75;;;2.43;52.61
64460;BME280;50828;53.756;21.140;2023-05-09T03:59:40;101225.54;;;2.64;52.58
64460;BME280;50828;53.756;21.140;2023-05-09T04:04:49;101227.83;;;2.86;52.78
64460;BME280;50828;53.756;21.140;2023-05-09T04:09:58;101232.19;;;3.06;53.15
64460;BME280;50828;53.756;21.140;2023-05-09T04:15:08;101234.94;;;3.23;53.11
64460;BME280;50828;53.756;21.140;2023-05-09T04:20:16;101231.75;;;3.39;53.38
64460;BME280;50828;53.756;21.140;2023-05-09T04:25:23;101230.30;;;3.57;53.81
64460;BME280;50828;53.756;21.140;2023-05-09T04:30:31;101229.21;;;3.80;53.90
64460;BME280;50828;53.756;21.140;2023-05-09T04:35:38;101229.69;;;4.06;53.79
64460;BME280;50828;53.756;21.140;2023-05-09T04:40:46;101217.40;;;4.32;53.76
64460;BME280;50828;53.756;21.140;2023-05-09T04:45:54;101227.46;;;4.79;53.89
64460;BME280;50828;53.756;21.140;2023-05-09T04:51:02;101231.14;;;5.24;53.98
64460;BME280;50828;53.756;21.140;2023-05-09T04:56:09;101227.77;;;5.69;53.74
64460;BME280;50828;53.756;21.140;2023-05-09T05:01:17;101232.52;;;6.20;53.76
64460;BME280;50828;53.756;21.140;2023-05-09T05:06:26;101235.91;;;6.72;53.57
64460;BME280;50828;53.756;21.140;2023-05-09T05:11:34;101230.29;;;7.23;53.39
64460;BME280;50828;53.756;21.140;2023-05-09T05:16:41;101225.05;;;7.74;52.89
64460;BME280;50828;53.756;21.140;2023-05-09T05:21:49;101225.35;;;8.24;52.32
64460;BME280;50828;53.756;21.140;2023-05-09T05:26:56;101230.09;;;8.77;51.87
64460;BME280;50828;53.756;21.140;2023-05-09T05:32:03;101232.10;;;9.27;51.47
64460;BME280;50828;53.756;21.140;2023-05-09T05:37:11;101224.14;;;9.79;50.61
64460;BME280;50828;53.756;21.140;2023-05-09T05:42:19;101219.39;;;10.31;50.23
64460;BME280;50828;53.756;21.140;2023-05-09T05:47:26;101219.52;;;10.81;49.25
64460;BME280;50828;53.756;21.140;2023-05-09T05:52:36;101216.26;;;11.28;48.88
64460;BME280;50828;53.756;21.140;2023-05-09T05:57:45;101208.13;;;11.69;48.05
64460;BME280;50828;53.756;21.140;2023-05-09T06:02:53;101209.74;;;12.07;47.30
64460;BME280;50828;53.756;21.140;2023-05-09T06:08:05;101200.91;;;12.37;46.78
64460;BME280;50828;53.756;21.140;2023-05-09T06:13:13;101196.80;;;12.62;45.54
64460;BME280;50828;53.756;21.140;2023-05-09T06:18:24;101194.69;;;12.83;45.32
64460;BME280;50828;53.756;21.140;2023-05-09T06:23:31;101188.19;;;13.04;44.86
64460;BME280;50828;53.756;21.140;2023-05-09T06:28:44;101187.57;;;13.22;44.58
64460;BME280;50828;53.756;21.140;2023-05-09T06:33:51;101187.45;;;13.42;44.13
64460;BME280;50828;53.756;21.140;2023-05-09T06:38:59;101189.83;;;13.65;43.83
64460;BME280;50828;53.756;21.140;2023-05-09T06:44:07;101188.27;;;13.93;43.59
64460;BME280;50828;53.756;21.140;2023-05-09T06:49:14;101195.46;;;14.28;42.98
64460;BME280;50828;53.756;21.140;2023-05-09T06:54:21;101193.41;;;14.58;42.41
64460;BME280;50828;53.756;21.140;2023-05-09T06:59:29;101196.42;;;14.81;41.51
64460;BME280;50828;53.756;21.140;2023-05-09T07:04:37;101190.71;;;14.99;40.85
64460;BME280;50828;53.756;21.140;2023-05-09T07:09:45;101185.76;;;15.12;40.04
64460;BME280;50828;53.756;21.140;2023-05-09T07:14:57;101182.19;;;15.21;39.44
64460;BME280;50828;53.756;21.140;2023-05-09T07:20:05;101181.80;;;15.30;38.68
64460;BME280;50828;53.756;21.140;2023-05-09T07:25:13;101177.76;;;15.37;38.13
64460;BME280;50828;53.756;21.140;2023-05-09T07:30:22;101172.23;;;15.41;37.78
64460;BME280;50828;53.756;21.140;2023-05-09T07:35:29;101163.59;;;15.53;37.10
64460;BME280;50828;53.756;21.140;2023-05-09T07:40:37;101158.27;;;15.65;36.78
64460;BME280;50828;53.756;21.140;2023-05-09T07:45:44;101156.52;;;15.81;36.31
64460;BME280;50828;53.756;21.140;2023-05-09T07:50:51;101148.91;;;15.99;35.45
64460;BME280;50828;53.756;21.140;2023-05-09T07:55:59;101137.71;;;16.15;34.90
64460;BME280;50828;53.756;21.140;2023-05-09T08:01:06;101136.11;;;16.33;34.47
64460;BME280;50828;53.756;21.140;2023-05-09T08:06:14;101127.25;;;16.48;34.08
64460;BME280;50828;53.756;21.140;2023-05-09T08:11:21;101126.80;;;16.64;33.89
64460;BME280;50828;53.756;21.140;2023-05-09T08:16:29;101123.23;;;16.75;33.67
64460;BME280;50828;53.756;21.140;2023-05-09T08:21:36;101117.52;;;16.83;33.33
64460;BME280;50828;53.756;21.140;2023-05-09T08:26:44;101109.83;;;16.88;32.82
64460;BME280;50828;53.756;21.140;2023-05-09T08:31:51;101099.15;;;16.91;32.02
64460;BME280;50828;53.756;21.140;2023-05-09T08:36:58;101097.78;;;16.94;32.03
64460;BME280;50828;53.756;21.140;2023-05-09T08:42:06;101091.75;;;16.97;31.65
64460;BME280;50828;53.756;21.140;2023-05-09T08:47:14;101087.06;;;17.01;31.48
64460;BME280;50828;53.756;21.140;2023-05-09T08:52:22;101082.63;;;17.05;31.73
64460;BME280;50828;53.756;21.140;2023-05-09T08:57:30;101079.45;;;17.08;31.33
64460;BME280;50828;53.756;21.140;2023-05-09T09:02:38;101077.12;;;17.12;31.17
64460;BME280;50828;53.756;21.140;2023-05-09T09:07:47;101068.67;;;17.13;30.97
64460;BME280;50828;53.756;21.140;2023-05-09T09:12:57;101063.73;;;17.12;30.73
64460;BME280;50828;53.756;21.140;2023-05-09T09:18:07;101059.98;;;17.13;30.53
64460;BME280;50828;53.756;21.140;2023-05-09T09:23:18;101057.58;;;17.14;29.57
64460;BME280;50828;53.756;21.140;2023-05-09T09:28:26;101055.13;;;17.13;30.17
64460;BME280;50828;53.756;21.140;2023-05-09T09:33:34;101044.27;;;17.16;29.83
64460;BME280;50828;53.756;21.140;2023-05-09T09:38:42;101042.63;;;17.21;29.35
64460;BME280;50828;53.756;21.140;2023-05-09T09:43:50;101039.13;;;17.27;28.92
64460;BME280;50828;53.756;21.140;2023-05-09T09:48:57;101035.17;;;17.30;29.18
64460;BME280;50828;53.756;21.140;2023-05-09T09:54:07;101033.35;;;17.34;29.41
64460;BME280;50828;53.756;21.140;2023-05-09T09:59:15;101025.71;;;17.40;29.35
64460;BME280;50828;53.756;21.140;2023-05-09T10:04:23;101025.11;;;17.49;29.45
64460;BME280;50828;53.756;21.140;2023-05-09T10:09:31;101022.42;;;17.56;29.07
64460;BME280;50828;53.756;21.140;2023-05-09T10:14:42;101019.34;;;17.60;29.02
64460;BME280;50828;53.756;21.140;2023-05-09T10:19:51;101017.55;;;17.67;28.94
64460;BME280;50828;53.756;21.140;2023-05-09T10:25:09;101007.49;;;17.74;29.04
64460;BME280;50828;53.756;21.140;2023-05-09T10:30:26;101001.70;;;17.69;28.34
64460;BME280;50828;53.756;21.140;2023-05-09T10:35:43;101001.18;;;17.66;28.44
64460;BME280;50828;53.756;21.140;2023-05-09T10:40:53;100997.55;;;17.67;28.51
64460;BME280;50828;53.756;21.140;2023-05-09T10:46:03;100990.27;;;17.67;28.74
64460;BME280;50828;53.756;21.140;2023-05-09T10:51:11;100980.59;;;17.65;28.78
64460;BME280;50828;53.756;21.140;2023-05-09T10:56:28;100970.83;;;17.64;28.43
64460;BME280;50828;53.756;21.140;2023-05-09T11:01:37;100967.61;;;17.64;28.00
64460;BME280;50828;53.756;21.140;2023-05-09T11:06:47;100963.94;;;17.63;28.01
64460;BME280;50828;53.756;21.140;2023-05-09T11:11:57;100948.34;;;17.62;27.82
64460;BME280;50828;53.756;21.140;2023-05-09T11:17:06;100946.27;;;17.60;27.53
64460;BME280;50828;53.756;21.140;2023-05-09T11:22:16;100944.09;;;17.58;27.89
64460;BME280;50828;53.756;21.140;2023-05-09T11:27:26;100946.63;;;17.60;28.40
64460;BME280;50828;53.756;21.140;2023-05-09T11:32:39;100927.14;;;17.65;28.48
64460;BME280;50828;53.756;21.140;2023-05-09T11:37:49;100922.27;;;17.69;28.10
64460;BME280;50828;53.756;21.140;2023-05-09T11:42:58;100913.91;;;17.72;27.66
64460;BME280;50828;53.756;21.140;2023-05-09T11:48:08;100905.89;;;17.78;27.92
64460;BME280;50828;53.756;21.140;2023-05-09T11:53:16;100897.19;;;17.81;27.94
64460;BME280;50828;53.756;21.140;2023-05-09T11:58:24;100890.51;;;17.83;27.65
64460;BME280;50828;53.756;21.140;2023-05-09T12:03:33;100883.11;;;17.84;27.61
64460;BME280;50828;53.756;21.140;2023-05-09T12:08:41;100878.26;;;17.89;27.40
64460;BME280;50828;53.756;21.140;2023-05-09T12:13:49;100871.96;;;17.92;27.45
64460;BME280;50828;53.756;21.140;2023-05-09T12:18:57;100865.95;;;17.95;27.01
64460;BME280;50828;53.756;21.140;2023-05-09T12:24:06;100858.15;;;17.97;26.91
64460;BME280;50828;53.756;21.140;2023-05-09T12:29:14;100857.95;;;18.01;26.66
64460;BME280;50828;53.756;21.140;2023-05-09T12:34:22;100849.86;;;18.05;26.19
64460;BME280;50828;53.756;21.140;2023-05-09T12:39:29;100849.35;;;18.07;25.83
64460;BME280;50828;53.756;21.140;2023-05-09T12:44:37;100833.32;;;18.10;26.10
64460;BME280;50828;53.756;21.140;2023-05-09T12:49:49;100826.27;;;18.15;25.79
64460;BME280;50828;53.756;21.140;2023-05-09T12:55:06;100819.70;;;18.18;25.73
64460;BME280;50828;53.756;21.140;2023-05-09T13:00:18;100810.13;;;18.19;25.47
64460;BME280;50828;53.756;21.140;2023-05-09T13:05:26;100811.48;;;18.21;25.16
64460;BME280;50828;53.756;21.140;2023-05-09T13:10:34;100805.36;;;18.22;25.07
64460;BME280;50828;53.756;21.140;2023-05-09T13:15:41;100796.45;;;18.24;25.21
64460;BME280;50828;53.756;21.140;2023-05-09T13:20:49;100793.89;;;18.28;25.24
64460;BME280;50828;53.756;21.140;2023-05-09T13:25:57;100782.42;;;18.32;25.20
64460;BME280;50828;53.756;21.140;2023-05-09T13:31:04;100777.90;;;18.36;25.32
64460;BME280;50828;53.756;21.140;2023-05-09T13:36:14;100773.89;;;18.44;24.98
64460;BME280;50828;53.756;21.140;2023-05-09T13:41:22;100763.87;;;18.47;24.64
64460;BME280;50828;53.756;21.140;2023-05-09T13:46:29;100763.74;;;18.51;24.87
64460;BME280;50828;53.756;21.140;2023-05-09T13:51:37;100758.61;;;18.54;24.62
64460;BME280;50828;53.756;21.140;2023-05-09T13:56:45;100755.59;;;18.54;24.53
64460;BME280;50828;53.756;21.140;2023-05-09T14:01:52;100755.91;;;18.57;24.13
64460;BME280;50828;53.756;21.140;2023-05-09T14:07:02;100753.27;;;18.59;24.26
64460;BME280;50828;53.756;21.140;2023-05-09T14:12:09;100742.34;;;18.60;24.23
64460;BME280;50828;53.756;21.140;2023-05-09T14:17:20;100738.77;;;18.60;24.12
64460;BME280;50828;53.756;21.140;2023-05-09T14:22:27;100735.77;;;18.60;24.06
64460;BME280;50828;53.756;21.140;2023-05-09T14:27:35;100726.63;;;18.60;24.38
64460;BME280;50828;53.756;21.140;2023-05-09T14:32:43;100718.88;;;18.59;24.29
64460;BME280;50828;53.756;21.140;2023-05-09T14:37:51;100712.08;;;18.57;24.15
64460;BME280;50828;53.756;21.140;2023-05-09T14:42:59;100711.70;;;18.54;24.14
64460;BME280;50828;53.756;21.140;2023-05-09T14:48:07;100704.15;;;18.52;24.13
64460;BME280;50828;53.756;21.140;2023-05-09T14:53:15;100710.12;;;18.50;24.14
64460;BME280;50828;53.756;21.140;2023-05-09T14:58:23;100698.79;;;18.46;24.23
64460;BME280;50828;53.756;21.140;2023-05-09T15:03:31;100694.52;;;18.41;24.06
64460;BME280;50828;53.756;21.140;2023-05-09T15:08:39;100691.39;;;18.37;24.05
64460;BME280;50828;53.756;21.140;2023-05-09T15:13:47;100685.92;;;18.33;24.30
64460;BME280;50828;53.756;21.140;2023-05-09T15:18:55;100674.66;;;18.28;24.07
64460;BME280;50828;53.756;21.140;2023-05-09T15:24:03;100671.16;;;18.24;24.36
64460;BME280;50828;53.756;21.140;2023-05-09T15:29:11;100666.50;;;18.22;24.63
64460;BME280;50828;53.756;21.140;2023-05-09T15:34:19;100664.69;;;18.19;24.33
64460;BME280;50828;53.756;21.140;2023-05-09T15:39:27;100659.10;;;18.15;24.51
64460;BME280;50828;53.756;21.140;2023-05-09T15:44:40;100657.56;;;18.10;24.52
64460;BME280;50828;53.756;21.140;2023-05-09T15:49:48;100657.75;;;18.08;24.85
64460;BME280;50828;53.756;21.140;2023-05-09T15:54:57;100650.67;;;18.07;24.85
64460;BME280;50828;53.756;21.140;2023-05-09T16:00:06;100640.84;;;18.04;24.78
64460;BME280;50828;53.756;21.140;2023-05-09T16:05:17;100642.80;;;18.02;25.13
64460;BME280;50828;53.756;21.140;2023-05-09T16:10:25;100640.89;;;17.98;25.30
64460;BME280;50828;53.756;21.140;2023-05-09T16:15:32;100631.63;;;17.95;24.81
64460;BME280;50828;53.756;21.140;2023-05-09T16:20:40;100630.49;;;17.93;24.87
64460;BME280;50828;53.756;21.140;2023-05-09T16:25:48;100622.80;;;17.88;25.26
64460;BME280;50828;53.756;21.140;2023-05-09T16:30:56;100624.99;;;17.81;25.41
64460;BME280;50828;53.756;21.140;2023-05-09T16:36:06;100622.94;;;17.74;25.42
64460;BME280;50828;53.756;21.140;2023-05-09T16:41:13;100620.36;;;17.67;25.30
64460;BME280;50828;53.756;21.140;2023-05-09T16:46:21;100613.41;;;17.61;25.65
64460;BME280;50828;53.756;21.140;2023-05-09T16:51:29;100613.27;;;17.54;25.92
64460;BME280;50828;53.756;21.140;2023-05-09T16:56:37;100593.56;;;17.42;25.94
64460;BME280;50828;53.756;21.140;2023-05-09T17:01:44;100599.38;;;17.46;25.89
64460;BME280;50828;53.756;21.140;2023-05-09T17:06:52;100594.54;;;17.40;26.15
64460;BME280;50828;53.756;21.140;2023-05-09T17:11:59;100589.13;;;17.33;26.25
64460;BME280;50828;53.756;21.140;2023-05-09T17:17:07;100588.96;;;17.24;26.46
64460;BME280;50828;53.756;21.140;2023-05-09T17:22:14;100587.46;;;17.13;26.28
64460;BME280;50828;53.756;21.140;2023-05-09T17:27:22;100587.04;;;17.02;26.47
64460;BME280;50828;53.756;21.140;2023-05-09T17:32:30;100587.45;;;16.93;26.70
64460;BME280;50828;53.756;21.140;2023-05-09T17:37:38;100583.05;;;16.82;26.75
64460;BME280;50828;53.756;21.140;2023-05-09T17:42:45;100580.05;;;16.73;26.83
64460;BME280;50828;53.756;21.140;2023-05-09T17:47:53;100575.26;;;16.60;27.15
64460;BME280;50828;53.756;21.140;2023-05-09T17:53:00;100576.94;;;16.49;27.26
64460;BME280;50828;53.756;21.140;2023-05-09T17:58:08;100579.45;;;16.37;27.71
64460;BME280;50828;53.756;21.140;2023-05-09T18:03:16;100584.58;;;16.24;27.92
64460;BME280;50828;53.756;21.140;2023-05-09T18:08:23;100587.48;;;16.11;28.52
64460;BME280;50828;53.756;21.140;2023-05-09T18:13:31;100594.73;;;15.95;28.75
64460;BME280;50828;53.756;21.140;2023-05-09T18:18:39;100596.91;;;15.78;29.41
64460;BME280;50828;53.756;21.140;2023-05-09T18:23:46;100604.42;;;15.59;29.40
64460;BME280;50828;53.756;21.140;2023-05-09T18:28:53;100605.66;;;15.39;29.79
64460;BME280;50828;53.756;21.140;2023-05-09T18:34:01;100599.67;;;15.14;30.28
64460;BME280;50828;53.756;21.140;2023-05-09T18:39:08;100601.52;;;14.92;30.14
64460;BME280;50828;53.756;21.140;2023-05-09T18:44:18;100604.95;;;14.73;30.00
64460;BME280;50828;53.756;21.140;2023-05-09T18:49:26;100607.30;;;14.54;30.19
64460;BME280;50828;53.756;21.140;2023-05-09T18:54:33;100608.61;;;14.37;30.24
64460;BME280;50828;53.756;21.140;2023-05-09T18:59:42;100612.55;;;14.22;30.62
64460;BME280;50828;53.756;21.140;2023-05-09T19:04:50;100620.63;;;14.08;31.08
64460;BME280;50828;53.756;21.140;2023-05-09T19:09:57;100620.67;;;13.92;31.58
64460;BME280;50828;53.756;21.140;2023-05-09T19:15:08;100619.76;;;13.73;32.02
64460;BME280;50828;53.756;21.140;2023-05-09T19:20:15;100619.09;;;13.52;32.33
64460;BME280;50828;53.756;21.140;2023-05-09T19:25:23;100614.20;;;13.30;32.48
64460;BME280;50828;53.756;21.140;2023-05-09T19:30:31;100609.17;;;13.07;32.48
64460;BME280;50828;53.756;21.140;2023-05-09T19:35:39;100610.40;;;12.90;32.94
64460;BME280;50828;53.756;21.140;2023-05-09T19:40:47;100610.95;;;12.72;33.12
64460;BME280;50828;53.756;21.140;2023-05-09T19:45:54;100607.77;;;12.56;33.40
64460;BME280;50828;53.756;21.140;2023-05-09T19:51:02;100607.23;;;12.38;33.44
64460;BME280;50828;53.756;21.140;2023-05-09T19:56:10;100605.89;;;12.22;33.64
64460;BME280;50828;53.756;21.140;2023-05-09T20:01:19;100607.05;;;12.06;33.82
64460;BME280;50828;53.756;21.140;2023-05-09T20:06:27;100609.39;;;11.96;33.80
64460;BME280;50828;53.756;21.140;2023-05-09T20:11:52;100609.36;;;11.86;33.98
64460;BME280;50828;53.756;21.140;2023-05-09T20:17:00;100613.53;;;11.78;34.34
64460;BME280;50828;53.756;21.140;2023-05-09T20:22:08;100611.25;;;11.68;34.59
64460;BME280;50828;53.756;21.140;2023-05-09T20:27:16;100613.20;;;11.54;34.91
64460;BME280;50828;53.756;21.140;2023-05-09T20:32:23;100613.23;;;11.38;35.02
64460;BME280;50828;53.756;21.140;2023-05-09T20:37:31;100610.54;;;11.19;35.24
64460;BME280;50828;53.756;21.140;2023-05-09T20:42:39;100609.20;;;11.02;35.48
64460;BME280;50828;53.756;21.140;2023-05-09T20:47:46;100605.38;;;10.84;35.88
64460;BME280;50828;53.756;21.140;2023-05-09T20:52:53;100598.07;;;10.66;36.03
64460;BME280;50828;53.756;21.140;2023-05-09T20:58:01;100600.80;;;10.46;36.60
64460;BME280;50828;53.756;21.140;2023-05-09T21:03:08;100598.40;;;10.26;36.55
64460;BME280;50828;53.756;21.140;2023-05-09T21:08:16;100600.27;;;10.06;37.02
64460;BME280;50828;53.756;21.140;2023-05-09T21:13:24;100602.77;;;9.87;37.28
64460;BME280;50828;53.756;21.140;2023-05-09T21:18:31;100600.04;;;9.66;37.81
64460;BME280;50828;53.756;21.140;2023-05-09T21:23:39;100604.16;;;9.51;38.09
64460;BME280;50828;53.756;21.140;2023-05-09T21:28:46;100610.48;;;9.38;38.14
64460;BME280;50828;53.756;21.140;2023-05-09T21:33:54;100606.96;;;9.25;38.54
64460;BME280;50828;53.756;21.140;2023-05-09T21:39:02;100607.45;;;9.13;38.59
64460;BME280;50828;53.756;21.140;2023-05-09T21:44:14;100604.66;;;8.99;38.91
64460;BME280;50828;53.756;21.140;2023-05-09T21:49:21;100605.02;;;8.85;39.04
64460;BME280;50828;53.756;21.140;2023-05-09T21:54:28;100607.00;;;8.69;39.07
64460;BME280;50828;53.756;21.140;2023-05-09T21:59:37;100606.17;;;8.52;39.53
64460;BME280;50828;53.756;21.140;2023-05-09T22:04:44;100606.38;;;8.34;39.70
64460;BME280;50828;53.756;21.140;2023-05-09T22:09:52;100604.15;;;8.16;39.69
64460;BME280;50828;53.756;21.140;2023-05-09T22:14:59;100612.10;;;7.98;39.97
64460;BME280;50828;53.756;21.140;2023-05-09T22:20:09;100606.86;;;7.80;40.32
64460;BME280;50828;53.756;21.140;2023-05-09T22:25:17;100605.64;;;7.63;40.55
64460;BME280;50828;53.756;21.140;2023-05-09T22:30:25;100606.66;;;7.47;40.80
64460;BME280;50828;53.756;21.140;2023-05-09T22:35:33;100606.11;;;7.29;41.13
64460;BME280;50828;53.756;21.140;2023-05-09T22:40:41;100606.55;;;7.15;41.31
64460;BME280;50828;53.756;21.140;2023-05-09T22:45:48;100604.73;;;7.00;41.77
64460;BME280;50828;53.756;21.140;2023-05-09T22:50:56;100598.27;;;6.88;42.10
64460;BME280;50828;53.756;21.140;2023-05-09T22:56:04;100600.01;;;6.79;42.34
64460;BME280;50828;53.756;21.140;2023-05-09T23:01:12;100602.38;;;6.73;42.48
64460;BME280;50828;53.756;21.140;2023-05-09T23:06:19;100598.92;;;6.70;42.72
64460;BME280;50828;53.756;21.140;2023-05-09T23:11:27;100593.16;;;6.69;42.87
64460;BME280;50828;53.756;21.140;2023-05-09T23:16:35;100572.65;;;6.61;42.97
64460;BME280;50828;53.756;21.140;2023-05-09T23:21:42;100586.15;;;6.70;43.42
64460;BME280;50828;53.756;21.140;2023-05-09T23:26:49;100588.42;;;6.70;43.38
64460;BME280;50828;53.756;21.140;2023-05-09T23:31:57;100588.77;;;6.70;43.36
64460;BME280;50828;53.756;21.140;2023-05-09T23:37:04;100593.52;;;6.68;43.26
64460;BME280;50828;53.756;21.140;2023-05-09T23:42:12;100595.66;;;6.67;43.45
64460;BME280;50828;53.756;21.140;2023-05-09T23:47:20;100590.46;;;6.63;43.19
64460;BME280;50828;53.756;21.140;2023-05-09T23:52:27;100586.84;;;6.60;43.24
64460;BME280;50828;53.756;21.140;2023-05-09T23:57:35;100580.77;;;6.56;43.42
